Авиационная погода в Куопио

Регион: 
Погода METAR: 
EFKU 290120Z AUTO 18015KT 9999 OVC011 08/06 Q1003
Время наблюдения
2020-10-29T01:20:00Z
Температура C
8.0
Точка росы
6.0
Направление ветра
180
Скорость ветра (узлы)
15
Метео видимость
6.21
Явления погоды
Условия полета
MVFR